sensor_id;sensor_type;location;lat;lon;timestamp;P1;durP1;ratioP1;P2;durP2;ratioP2
17818;SDS011;9034;50.284;19.310;2022-10-17T00:00:17;34.63;;;19.20;;
17818;SDS011;9034;50.284;19.310;2022-10-17T00:01:20;36.60;;;17.98;;
17818;SDS011;9034;50.284;19.310;2022-10-17T00:02:24;78.93;;;19.05;;
17818;SDS011;9034;50.284;19.310;2022-10-17T00:03:27;87.20;;;20.75;;
17818;SDS011;9034;50.284;19.310;2022-10-17T00:04:31;34.00;;;17.65;;
17818;SDS011;9034;50.284;19.310;2022-10-17T00:05:38;31.85;;;16.83;;
17818;SDS011;9034;50.284;19.310;2022-10-17T00:06:42;22.13;;;16.27;;
17818;SDS011;9034;50.284;19.310;2022-10-17T00:07:45;24.00;;;16.25;;
17818;SDS011;9034;50.284;19.310;2022-10-17T00:08:50;19.63;;;15.27;;
17818;SDS011;9034;50.284;19.310;2022-10-17T00:09:54;29.35;;;20.33;;
17818;SDS011;9034;50.284;19.310;2022-10-17T00:10:58;31.60;;;22.05;;
17818;SDS011;9034;50.284;19.310;2022-10-17T00:12:02;27.35;;;19.38;;
17818;SDS011;9034;50.284;19.310;2022-10-17T00:13:08;22.67;;;17.42;;
17818;SDS011;9034;50.284;19.310;2022-10-17T00:14:11;29.08;;;18.88;;
17818;SDS011;9034;50.284;19.310;2022-10-17T00:15:15;24.63;;;18.38;;
17818;SDS011;9034;50.284;19.310;2022-10-17T00:16:21;79.20;;;19.23;;
17818;SDS011;9034;50.284;19.310;2022-10-17T00:17:29;24.13;;;17.70;;
17818;SDS011;9034;50.284;19.310;2022-10-17T00:18:32;49.58;;;20.90;;
17818;SDS011;9034;50.284;19.310;2022-10-17T00:19:36;31.65;;;18.58;;
17818;SDS011;9034;50.284;19.310;2022-10-17T00:20:39;38.08;;;17.38;;
17818;SDS011;9034;50.284;19.310;2022-10-17T00:21:43;32.40;;;16.58;;
17818;SDS011;9034;50.284;19.310;2022-10-17T00:22:46;56.83;;;17.75;;
17818;SDS011;9034;50.284;19.310;2022-10-17T00:23:50;45.80;;;16.35;;
17818;SDS011;9034;50.284;19.310;2022-10-17T00:24:53;84.57;;;18.52;;
17818;SDS011;9034;50.284;19.310;2022-10-17T00:25:59;21.20;;;14.43;;
17818;SDS011;9034;50.284;19.310;2022-10-17T00:27:03;20.55;;;16.33;;
17818;SDS011;9034;50.284;19.310;2022-10-17T00:28:09;19.15;;;14.20;;
17818;SDS011;9034;50.284;19.310;2022-10-17T00:29:12;22.25;;;16.35;;
17818;SDS011;9034;50.284;19.310;2022-10-17T00:30:16;21.88;;;16.08;;
17818;SDS011;9034;50.284;19.310;2022-10-17T00:31:20;33.03;;;17.95;;
17818;SDS011;9034;50.284;19.310;2022-10-17T00:32:25;29.17;;;18.90;;
17818;SDS011;9034;50.284;19.310;2022-10-17T00:33:28;30.88;;;17.60;;
17818;SDS011;9034;50.284;19.310;2022-10-17T00:34:33;22.88;;;16.83;;
17818;SDS011;9034;50.284;19.310;2022-10-17T00:35:36;26.02;;;17.67;;
17818;SDS011;9034;50.284;19.310;2022-10-17T00:36:40;25.92;;;18.20;;
17818;SDS011;9034;50.284;19.310;2022-10-17T00:37:43;24.85;;;17.48;;
17818;SDS011;9034;50.284;19.310;2022-10-17T00:38:48;26.05;;;17.90;;
17818;SDS011;9034;50.284;19.310;2022-10-17T00:39:52;27.75;;;18.38;;
17818;SDS011;9034;50.284;19.310;2022-10-17T00:40:57;31.98;;;19.63;;
17818;SDS011;9034;50.284;19.310;2022-10-17T00:41:59;67.88;;;19.52;;
17818;SDS011;9034;50.284;19.310;2022-10-17T00:43:04;77.88;;;19.75;;
17818;SDS011;9034;50.284;19.310;2022-10-17T00:45:50;45.47;;;15.35;;
17818;SDS011;9034;50.284;19.310;2022-10-17T00:46:54;37.58;;;16.30;;
17818;SDS011;9034;50.284;19.310;2022-10-17T00:47:58;31.02;;;15.43;;
17818;SDS011;9034;50.284;19.310;2022-10-17T00:49:03;22.23;;;14.27;;
17818;SDS011;9034;50.284;19.310;2022-10-17T00:50:08;22.33;;;13.65;;
17818;SDS011;9034;50.284;19.310;2022-10-17T00:51:12;20.52;;;14.38;;
17818;SDS011;9034;50.284;19.310;2022-10-17T00:52:17;16.60;;;12.85;;
17818;SDS011;9034;50.284;19.310;2022-10-17T00:53:23;20.33;;;13.20;;
17818;SDS011;9034;50.284;19.310;2022-10-17T00:54:27;15.38;;;12.02;;
17818;SDS011;9034;50.284;19.310;2022-10-17T00:55:35;20.98;;;13.52;;
17818;SDS011;9034;50.284;19.310;2022-10-17T00:56:40;21.83;;;15.48;;
17818;SDS011;9034;50.284;19.310;2022-10-17T00:57:45;23.50;;;17.15;;
17818;SDS011;9034;50.284;19.310;2022-10-17T00:58:48;22.85;;;17.15;;
17818;SDS011;9034;50.284;19.310;2022-10-17T00:59:52;28.98;;;18.58;;
17818;SDS011;9034;50.284;19.310;2022-10-17T01:00:59;46.55;;;19.70;;
17818;SDS011;9034;50.284;19.310;2022-10-17T01:02:05;134.45;;;25.15;;
17818;SDS011;9034;50.284;19.310;2022-10-17T01:03:10;199.40;;;29.55;;
17818;SDS011;9034;50.284;19.310;2022-10-17T01:04:14;155.18;;;23.23;;
17818;SDS011;9034;50.284;19.310;2022-10-17T01:05:17;124.05;;;22.92;;
17818;SDS011;9034;50.284;19.310;2022-10-17T01:06:22;91.28;;;24.08;;
17818;SDS011;9034;50.284;19.310;2022-10-17T01:07:25;49.60;;;19.63;;
17818;SDS011;9034;50.284;19.310;2022-10-17T01:08:37;25.20;;;16.65;;
17818;SDS011;9034;50.284;19.310;2022-10-17T01:09:40;38.80;;;18.75;;
17818;SDS011;9034;50.284;19.310;2022-10-17T01:10:48;21.17;;;14.70;;
17818;SDS011;9034;50.284;19.310;2022-10-17T01:11:58;26.13;;;16.13;;
17818;SDS011;9034;50.284;19.310;2022-10-17T01:13:09;34.50;;;16.92;;
17818;SDS011;9034;50.284;19.310;2022-10-17T01:14:17;26.70;;;17.35;;
17818;SDS011;9034;50.284;19.310;2022-10-17T01:15:30;27.23;;;16.85;;
17818;SDS011;9034;50.284;19.310;2022-10-17T01:16:41;22.65;;;16.38;;
17818;SDS011;9034;50.284;19.310;2022-10-17T01:17:54;25.52;;;16.77;;
17818;SDS011;9034;50.284;19.310;2022-10-17T01:19:05;25.92;;;16.63;;
17818;SDS011;9034;50.284;19.310;2022-10-17T01:22:01;25.20;;;17.83;;
17818;SDS011;9034;50.284;19.310;2022-10-17T01:23:15;30.85;;;18.17;;
17818;SDS011;9034;50.284;19.310;2022-10-17T01:25:51;24.05;;;15.23;;
17818;SDS011;9034;50.284;19.310;2022-10-17T01:27:04;22.48;;;15.25;;
17818;SDS011;9034;50.284;19.310;2022-10-17T01:30:10;34.60;;;15.13;;
17818;SDS011;9034;50.284;19.310;2022-10-17T01:31:38;36.75;;;16.08;;
17818;SDS011;9034;50.284;19.310;2022-10-17T01:32:45;24.70;;;16.58;;
17818;SDS011;9034;50.284;19.310;2022-10-17T01:33:54;23.42;;;15.30;;
17818;SDS011;9034;50.284;19.310;2022-10-17T01:35:03;25.13;;;16.98;;
17818;SDS011;9034;50.284;19.310;2022-10-17T01:36:11;26.80;;;18.25;;
17818;SDS011;9034;50.284;19.310;2022-10-17T01:37:22;21.88;;;17.00;;
17818;SDS011;9034;50.284;19.310;2022-10-17T01:38:31;26.02;;;18.52;;
17818;SDS011;9034;50.284;19.310;2022-10-17T01:39:39;24.85;;;17.15;;
17818;SDS011;9034;50.284;19.310;2022-10-17T01:40:49;26.83;;;18.38;;
17818;SDS011;9034;50.284;19.310;2022-10-17T01:41:56;23.58;;;17.58;;
17818;SDS011;9034;50.284;19.310;2022-10-17T01:43:04;21.83;;;17.25;;
17818;SDS011;9034;50.284;19.310;2022-10-17T01:44:12;24.00;;;18.17;;
17818;SDS011;9034;50.284;19.310;2022-10-17T01:45:18;25.75;;;18.40;;
17818;SDS011;9034;50.284;19.310;2022-10-17T01:46:25;26.25;;;17.92;;
17818;SDS011;9034;50.284;19.310;2022-10-17T01:47:32;29.50;;;21.10;;
17818;SDS011;9034;50.284;19.310;2022-10-17T01:48:37;29.52;;;18.80;;
17818;SDS011;9034;50.284;19.310;2022-10-17T01:49:44;29.95;;;20.10;;
17818;SDS011;9034;50.284;19.310;2022-10-17T01:50:50;26.95;;;17.95;;
17818;SDS011;9034;50.284;19.310;2022-10-17T01:51:56;26.77;;;19.02;;
17818;SDS011;9034;50.284;19.310;2022-10-17T01:53:04;27.20;;;20.00;;
17818;SDS011;9034;50.284;19.310;2022-10-17T01:54:12;28.75;;;19.73;;
17818;SDS011;9034;50.284;19.310;2022-10-17T01:55:21;31.50;;;20.13;;
17818;SDS011;9034;50.284;19.310;2022-10-17T01:56:29;29.55;;;20.05;;
17818;SDS011;9034;50.284;19.310;2022-10-17T01:57:37;28.60;;;19.15;;
17818;SDS011;9034;50.284;19.310;2022-10-17T01:58:43;25.27;;;18.80;;
17818;SDS011;9034;50.284;19.310;2022-10-17T01:59:50;31.80;;;19.98;;
17818;SDS011;9034;50.284;19.310;2022-10-17T02:00:55;39.13;;;20.45;;
17818;SDS011;9034;50.284;19.310;2022-10-17T02:02:05;24.92;;;15.48;;
17818;SDS011;9034;50.284;19.310;2022-10-17T02:03:11;17.75;;;14.73;;
17818;SDS011;9034;50.284;19.310;2022-10-17T02:04:17;23.75;;;15.90;;
17818;SDS011;9034;50.284;19.310;2022-10-17T02:05:21;26.80;;;19.17;;
17818;SDS011;9034;50.284;19.310;2022-10-17T02:06:27;32.25;;;20.98;;
17818;SDS011;9034;50.284;19.310;2022-10-17T02:07:31;34.38;;;21.77;;
17818;SDS011;9034;50.284;19.310;2022-10-17T02:08:39;34.25;;;22.30;;
17818;SDS011;9034;50.284;19.310;2022-10-17T02:09:43;33.28;;;22.98;;
17818;SDS011;9034;50.284;19.310;2022-10-17T02:10:48;37.13;;;24.73;;
17818;SDS011;9034;50.284;19.310;2022-10-17T02:11:59;50.78;;;28.75;;
17818;SDS011;9034;50.284;19.310;2022-10-17T02:13:14;72.40;;;32.30;;
17818;SDS011;9034;50.284;19.310;2022-10-17T02:14:24;43.33;;;26.25;;
17818;SDS011;9034;50.284;19.310;2022-10-17T02:17:04;33.90;;;22.98;;
17818;SDS011;9034;50.284;19.310;2022-10-17T02:18:17;35.03;;;24.73;;
17818;SDS011;9034;50.284;19.310;2022-10-17T02:19:34;33.33;;;23.08;;
17818;SDS011;9034;50.284;19.310;2022-10-17T02:20:48;33.47;;;23.42;;
17818;SDS011;9034;50.284;19.310;2022-10-17T02:21:57;36.22;;;25.77;;
17818;SDS011;9034;50.284;19.310;2022-10-17T02:23:07;34.63;;;24.48;;
17818;SDS011;9034;50.284;19.310;2022-10-17T02:24:17;36.97;;;24.13;;
17818;SDS011;9034;50.284;19.310;2022-10-17T02:25:27;32.75;;;22.95;;
17818;SDS011;9034;50.284;19.310;2022-10-17T02:26:36;35.08;;;23.17;;
17818;SDS011;9034;50.284;19.310;2022-10-17T02:27:44;31.60;;;21.50;;
17818;SDS011;9034;50.284;19.310;2022-10-17T02:28:56;89.63;;;26.30;;
17818;SDS011;9034;50.284;19.310;2022-10-17T02:30:05;40.53;;;26.00;;
17818;SDS011;9034;50.284;19.310;2022-10-17T02:31:13;42.03;;;27.42;;
17818;SDS011;9034;50.284;19.310;2022-10-17T02:32:20;161.75;;;31.85;;
17818;SDS011;9034;50.284;19.310;2022-10-17T02:33:29;122.60;;;25.63;;
17818;SDS011;9034;50.284;19.310;2022-10-17T02:34:35;74.22;;;22.15;;
17818;SDS011;9034;50.284;19.310;2022-10-17T02:35:42;27.27;;;19.67;;
17818;SDS011;9034;50.284;19.310;2022-10-17T02:36:49;23.00;;;19.58;;
17818;SDS011;9034;50.284;19.310;2022-10-17T02:37:56;31.48;;;20.52;;
17818;SDS011;9034;50.284;19.310;2022-10-17T02:38:59;31.65;;;22.20;;
17818;SDS011;9034;50.284;19.310;2022-10-17T02:40:05;28.30;;;19.23;;
17818;SDS011;9034;50.284;19.310;2022-10-17T02:41:14;139.95;;;24.15;;
17818;SDS011;9034;50.284;19.310;2022-10-17T02:42:20;38.92;;;22.10;;
17818;SDS011;9034;50.284;19.310;2022-10-17T02:43:24;26.45;;;19.77;;
17818;SDS011;9034;50.284;19.310;2022-10-17T02:44:28;26.75;;;19.40;;
17818;SDS011;9034;50.284;19.310;2022-10-17T02:45:32;27.20;;;19.63;;
17818;SDS011;9034;50.284;19.310;2022-10-17T02:46:39;33.17;;;20.52;;
17818;SDS011;9034;50.284;19.310;2022-10-17T02:47:47;32.08;;;19.77;;
17818;SDS011;9034;50.284;19.310;2022-10-17T02:48:55;30.30;;;20.92;;
17818;SDS011;9034;50.284;19.310;2022-10-17T02:50:02;32.05;;;20.10;;
17818;SDS011;9034;50.284;19.310;2022-10-17T02:51:09;31.75;;;20.75;;
17818;SDS011;9034;50.284;19.310;2022-10-17T02:52:14;29.58;;;20.63;;
17818;SDS011;9034;50.284;19.310;2022-10-17T02:53:24;26.73;;;19.33;;
17818;SDS011;9034;50.284;19.310;2022-10-17T02:54:34;31.48;;;21.25;;
17818;SDS011;9034;50.284;19.310;2022-10-17T02:55:43;29.92;;;20.98;;
17818;SDS011;9034;50.284;19.310;2022-10-17T02:56:50;29.67;;;20.05;;
17818;SDS011;9034;50.284;19.310;2022-10-17T02:57:58;27.25;;;20.70;;
17818;SDS011;9034;50.284;19.310;2022-10-17T02:59:04;25.20;;;18.13;;
17818;SDS011;9034;50.284;19.310;2022-10-17T03:00:11;23.88;;;17.80;;
17818;SDS011;9034;50.284;19.310;2022-10-17T03:01:15;31.52;;;19.90;;
17818;SDS011;9034;50.284;19.310;2022-10-17T03:02:20;31.67;;;19.85;;
17818;SDS011;9034;50.284;19.310;2022-10-17T03:03:24;30.85;;;19.63;;
17818;SDS011;9034;50.284;19.310;2022-10-17T03:04:35;40.35;;;19.75;;
17818;SDS011;9034;50.284;19.310;2022-10-17T03:05:38;60.50;;;19.35;;
17818;SDS011;9034;50.284;19.310;2022-10-17T03:06:42;32.78;;;18.83;;
17818;SDS011;9034;50.284;19.310;2022-10-17T03:07:47;22.88;;;15.10;;
17818;SDS011;9034;50.284;19.310;2022-10-17T03:08:52;38.67;;;16.50;;
17818;SDS011;9034;50.284;19.310;2022-10-17T03:09:55;34.55;;;17.27;;
17818;SDS011;9034;50.284;19.310;2022-10-17T03:10:59;19.55;;;15.73;;
17818;SDS011;9034;50.284;19.310;2022-10-17T03:12:02;23.98;;;16.45;;
17818;SDS011;9034;50.284;19.310;2022-10-17T03:13:07;29.40;;;17.33;;
17818;SDS011;9034;50.284;19.310;2022-10-17T03:14:14;25.95;;;17.23;;
17818;SDS011;9034;50.284;19.310;2022-10-17T03:15:18;28.05;;;17.27;;
17818;SDS011;9034;50.284;19.310;2022-10-17T03:16:21;43.83;;;21.75;;
17818;SDS011;9034;50.284;19.310;2022-10-17T03:17:25;142.60;;;21.67;;
17818;SDS011;9034;50.284;19.310;2022-10-17T03:18:29;104.25;;;23.17;;
17818;SDS011;9034;50.284;19.310;2022-10-17T03:19:36;38.10;;;19.63;;
17818;SDS011;9034;50.284;19.310;2022-10-17T03:20:40;25.33;;;18.23;;
17818;SDS011;9034;50.284;19.310;2022-10-17T03:21:43;25.52;;;16.55;;
17818;SDS011;9034;50.284;19.310;2022-10-17T03:22:47;26.20;;;18.52;;
17818;SDS011;9034;50.284;19.310;2022-10-17T03:23:50;30.17;;;19.65;;
17818;SDS011;9034;50.284;19.310;2022-10-17T03:24:56;24.10;;;17.65;;
17818;SDS011;9034;50.284;19.310;2022-10-17T03:26:01;25.00;;;17.75;;
17818;SDS011;9034;50.284;19.310;2022-10-17T03:38:22;46.22;;;22.75;;
17818;SDS011;9034;50.284;19.310;2022-10-17T03:39:26;33.65;;;20.67;;
17818;SDS011;9034;50.284;19.310;2022-10-17T03:40:30;28.05;;;20.48;;
17818;SDS011;9034;50.284;19.310;2022-10-17T03:41:33;31.55;;;20.75;;
17818;SDS011;9034;50.284;19.310;2022-10-17T03:42:37;36.97;;;22.67;;
17818;SDS011;9034;50.284;19.310;2022-10-17T03:43:40;40.92;;;22.42;;
17818;SDS011;9034;50.284;19.310;2022-10-17T03:44:44;26.23;;;18.77;;
17818;SDS011;9034;50.284;19.310;2022-10-17T03:45:47;29.55;;;20.95;;
17818;SDS011;9034;50.284;19.310;2022-10-17T03:46:51;34.15;;;21.58;;
17818;SDS011;9034;50.284;19.310;2022-10-17T03:47:54;30.85;;;21.17;;
17818;SDS011;9034;50.284;19.310;2022-10-17T03:48:59;32.85;;;20.90;;
17818;SDS011;9034;50.284;19.310;2022-10-17T03:50:02;35.47;;;22.08;;
17818;SDS011;9034;50.284;19.310;2022-10-17T03:51:10;25.30;;;16.90;;
17818;SDS011;9034;50.284;19.310;2022-10-17T03:52:18;33.88;;;21.42;;
17818;SDS011;9034;50.284;19.310;2022-10-17T03:53:24;31.13;;;17.90;;
17818;SDS011;9034;50.284;19.310;2022-10-17T03:54:28;169.88;;;30.45;;
17818;SDS011;9034;50.284;19.310;2022-10-17T03:55:32;126.55;;;26.92;;
17818;SDS011;9034;50.284;19.310;2022-10-17T03:56:35;225.85;;;35.03;;
17818;SDS011;9034;50.284;19.310;2022-10-17T03:57:44;36.28;;;23.42;;
17818;SDS011;9034;50.284;19.310;2022-10-17T03:58:48;50.65;;;26.38;;
17818;SDS011;9034;50.284;19.310;2022-10-17T03:59:52;43.15;;;24.38;;
17818;SDS011;9034;50.284;19.310;2022-10-17T04:00:56;45.85;;;24.88;;
17818;SDS011;9034;50.284;19.310;2022-10-17T04:02:00;40.80;;;25.08;;
17818;SDS011;9034;50.284;19.310;2022-10-17T04:03:03;35.90;;;23.63;;
17818;SDS011;9034;50.284;19.310;2022-10-17T04:04:07;35.60;;;23.60;;
17818;SDS011;9034;50.284;19.310;2022-10-17T04:05:11;41.47;;;25.55;;
17818;SDS011;9034;50.284;19.310;2022-10-17T04:06:15;44.38;;;26.02;;
17818;SDS011;9034;50.284;19.310;2022-10-17T04:07:18;38.63;;;26.10;;
17818;SDS011;9034;50.284;19.310;2022-10-17T04:08:23;39.20;;;26.08;;
17818;SDS011;9034;50.284;19.310;2022-10-17T04:09:39;33.33;;;23.15;;
17818;SDS011;9034;50.284;19.310;2022-10-17T04:10:47;90.55;;;25.25;;
17818;SDS011;9034;50.284;19.310;2022-10-17T04:11:50;35.15;;;21.85;;
17818;SDS011;9034;50.284;19.310;2022-10-17T04:12:55;47.22;;;22.73;;
17818;SDS011;9034;50.284;19.310;2022-10-17T04:13:58;46.20;;;24.55;;
17818;SDS011;9034;50.284;19.310;2022-10-17T04:15:04;60.80;;;22.48;;
17818;SDS011;9034;50.284;19.310;2022-10-17T04:16:10;53.22;;;22.48;;
17818;SDS011;9034;50.284;19.310;2022-10-17T04:17:26;28.35;;;19.60;;
17818;SDS011;9034;50.284;19.310;2022-10-17T04:18:30;35.72;;;21.52;;
17818;SDS011;9034;50.284;19.310;2022-10-17T04:19:33;28.30;;;19.52;;
17818;SDS011;9034;50.284;19.310;2022-10-17T04:20:37;27.42;;;19.38;;
17818;SDS011;9034;50.284;19.310;2022-10-17T04:21:40;31.25;;;20.45;;
17818;SDS011;9034;50.284;19.310;2022-10-17T04:22:44;34.33;;;21.38;;
17818;SDS011;9034;50.284;19.310;2022-10-17T04:23:49;33.28;;;21.15;;
17818;SDS011;9034;50.284;19.310;2022-10-17T04:25:08;37.67;;;24.05;;
17818;SDS011;9034;50.284;19.310;2022-10-17T04:26:14;32.03;;;22.13;;
17818;SDS011;9034;50.284;19.310;2022-10-17T04:27:18;36.55;;;23.75;;
17818;SDS011;9034;50.284;19.310;2022-10-17T04:28:22;33.60;;;22.40;;
17818;SDS011;9034;50.284;19.310;2022-10-17T04:29:26;31.45;;;20.80;;
17818;SDS011;9034;50.284;19.310;2022-10-17T04:30:38;27.50;;;19.15;;
17818;SDS011;9034;50.284;19.310;2022-10-17T04:31:46;32.80;;;21.17;;
17818;SDS011;9034;50.284;19.310;2022-10-17T04:32:55;33.72;;;21.38;;
17818;SDS011;9034;50.284;19.310;2022-10-17T04:34:01;35.22;;;22.85;;
17818;SDS011;9034;50.284;19.310;2022-10-17T04:35:04;38.50;;;24.83;;
17818;SDS011;9034;50.284;19.310;2022-10-17T04:36:10;45.42;;;26.35;;
17818;SDS011;9034;50.284;19.310;2022-10-17T04:37:14;38.00;;;25.63;;
17818;SDS011;9034;50.284;19.310;2022-10-17T04:38:20;55.60;;;28.55;;
17818;SDS011;9034;50.284;19.310;2022-10-17T04:39:31;60.60;;;25.50;;
17818;SDS011;9034;50.284;19.310;2022-10-17T04:40:35;84.13;;;25.15;;
17818;SDS011;9034;50.284;19.310;2022-10-17T04:41:38;94.82;;;26.02;;
17818;SDS011;9034;50.284;19.310;2022-10-17T04:42:43;84.75;;;27.23;;
17818;SDS011;9034;50.284;19.310;2022-10-17T04:43:49;86.55;;;25.90;;
17818;SDS011;9034;50.284;19.310;2022-10-17T04:44:54;37.17;;;23.95;;
17818;SDS011;9034;50.284;19.310;2022-10-17T04:46:00;33.08;;;22.23;;
17818;SDS011;9034;50.284;19.310;2022-10-17T04:47:06;31.30;;;21.23;;
17818;SDS011;9034;50.284;19.310;2022-10-17T04:48:12;41.33;;;26.85;;
17818;SDS011;9034;50.284;19.310;2022-10-17T04:49:16;50.45;;;31.85;;
17818;SDS011;9034;50.284;19.310;2022-10-17T04:50:23;42.70;;;29.10;;
17818;SDS011;9034;50.284;19.310;2022-10-17T04:51:46;72.70;;;36.33;;
17818;SDS011;9034;50.284;19.310;2022-10-17T04:52:59;90.90;;;38.40;;
17818;SDS011;9034;50.284;19.310;2022-10-17T04:54:02;110.07;;;41.08;;
17818;SDS011;9034;50.284;19.310;2022-10-17T04:55:09;110.78;;;44.55;;
17818;SDS011;9034;50.284;19.310;2022-10-17T04:56:13;83.75;;;29.48;;
17818;SDS011;9034;50.284;19.310;2022-10-17T04:57:18;58.38;;;30.73;;
17818;SDS011;9034;50.284;19.310;2022-10-17T04:58:38;55.17;;;30.70;;
17818;SDS011;9034;50.284;19.310;2022-10-17T04:59:43;58.65;;;30.45;;
17818;SDS011;9034;50.284;19.310;2022-10-17T05:00:55;89.63;;;39.03;;
17818;SDS011;9034;50.284;19.310;2022-10-17T05:02:03;53.75;;;29.27;;
17818;SDS011;9034;50.284;19.310;2022-10-17T05:03:08;66.80;;;33.05;;
17818;SDS011;9034;50.284;19.310;2022-10-17T05:04:11;50.88;;;29.63;;
17818;SDS011;9034;50.284;19.310;2022-10-17T05:05:15;63.65;;;29.98;;
17818;SDS011;9034;50.284;19.310;2022-10-17T05:06:21;60.75;;;28.38;;
17818;SDS011;9034;50.284;19.310;2022-10-17T05:07:44;179.30;;;37.35;;
17818;SDS011;9034;50.284;19.310;2022-10-17T05:08:52;60.33;;;27.35;;
17818;SDS011;9034;50.284;19.310;2022-10-17T05:09:56;40.13;;;26.20;;
17818;SDS011;9034;50.284;19.310;2022-10-17T05:11:01;49.33;;;28.60;;
17818;SDS011;9034;50.284;19.310;2022-10-17T05:12:07;46.00;;;27.50;;
17818;SDS011;9034;50.284;19.310;2022-10-17T05:13:14;40.85;;;27.95;;
17818;SDS011;9034;50.284;19.310;2022-10-17T05:14:18;42.63;;;26.38;;
17818;SDS011;9034;50.284;19.310;2022-10-17T05:15:22;35.30;;;23.75;;
17818;SDS011;9034;50.284;19.310;2022-10-17T05:16:28;37.15;;;25.10;;
17818;SDS011;9034;50.284;19.310;2022-10-17T05:17:33;37.20;;;24.58;;
17818;SDS011;9034;50.284;19.310;2022-10-17T05:18:36;40.30;;;25.73;;
17818;SDS011;9034;50.284;19.310;2022-10-17T05:19:40;44.95;;;25.67;;
17818;SDS011;9034;50.284;19.310;2022-10-17T05:20:43;37.75;;;21.92;;
17818;SDS011;9034;50.284;19.310;2022-10-17T05:21:47;29.80;;;21.05;;
17818;SDS011;9034;50.284;19.310;2022-10-17T05:22:50;29.05;;;20.73;;
17818;SDS011;9034;50.284;19.310;2022-10-17T05:23:54;28.15;;;20.92;;
17818;SDS011;9034;50.284;19.310;2022-10-17T05:24:58;46.83;;;23.85;;
17818;SDS011;9034;50.284;19.310;2022-10-17T05:26:04;32.47;;;22.58;;
17818;SDS011;9034;50.284;19.310;2022-10-17T05:27:07;28.00;;;21.40;;
17818;SDS011;9034;50.284;19.310;2022-10-17T05:28:11;34.42;;;23.75;;
17818;SDS011;9034;50.284;19.310;2022-10-17T05:29:16;41.33;;;23.85;;
17818;SDS011;9034;50.284;19.310;2022-10-17T05:30:25;32.28;;;21.77;;
17818;SDS011;9034;50.284;19.310;2022-10-17T05:31:42;38.85;;;24.88;;
17818;SDS011;9034;50.284;19.310;2022-10-17T05:32:46;49.13;;;32.55;;
17818;SDS011;9034;50.284;19.310;2022-10-17T05:33:49;49.55;;;28.98;;
17818;SDS011;9034;50.284;19.310;2022-10-17T05:34:53;50.42;;;28.92;;
17818;SDS011;9034;50.284;19.310;2022-10-17T05:35:58;73.63;;;33.78;;
17818;SDS011;9034;50.284;19.310;2022-10-17T05:37:03;51.55;;;30.38;;
17818;SDS011;9034;50.284;19.310;2022-10-17T05:38:06;47.97;;;30.40;;
17818;SDS011;9034;50.284;19.310;2022-10-17T05:39:12;45.60;;;30.15;;
17818;SDS011;9034;50.284;19.310;2022-10-17T05:40:16;42.25;;;29.58;;
17818;SDS011;9034;50.284;19.310;2022-10-17T05:41:22;52.70;;;33.83;;
17818;SDS011;9034;50.284;19.310;2022-10-17T05:42:25;55.88;;;37.35;;
17818;SDS011;9034;50.284;19.310;2022-10-17T05:43:31;57.25;;;34.58;;
17818;SDS011;9034;50.284;19.310;2022-10-17T05:44:35;45.83;;;32.75;;
17818;SDS011;9034;50.284;19.310;2022-10-17T05:45:41;50.20;;;34.45;;
17818;SDS011;9034;50.284;19.310;2022-10-17T05:46:51;43.28;;;31.13;;
17818;SDS011;9034;50.284;19.310;2022-10-17T05:47:55;47.55;;;31.95;;
17818;SDS011;9034;50.284;19.310;2022-10-17T05:49:00;50.83;;;34.80;;
17818;SDS011;9034;50.284;19.310;2022-10-17T05:50:08;47.00;;;31.23;;
17818;SDS011;9034;50.284;19.310;2022-10-17T05:51:33;44.00;;;29.73;;
17818;SDS011;9034;50.284;19.310;2022-10-17T05:52:39;41.55;;;28.90;;
17818;SDS011;9034;50.284;19.310;2022-10-17T05:53:49;42.47;;;27.98;;
17818;SDS011;9034;50.284;19.310;2022-10-17T05:54:58;37.05;;;26.02;;
17818;SDS011;9034;50.284;19.310;2022-10-17T05:56:02;33.92;;;25.73;;
17818;SDS011;9034;50.284;19.310;2022-10-17T05:57:09;34.50;;;24.67;;
17818;SDS011;9034;50.284;19.310;2022-10-17T05:58:13;31.27;;;23.15;;
17818;SDS011;9034;50.284;19.310;2022-10-17T05:59:26;29.65;;;22.15;;
17818;SDS011;9034;50.284;19.310;2022-10-17T06:00:35;35.75;;;23.45;;
17818;SDS011;9034;50.284;19.310;2022-10-17T06:01:39;33.00;;;23.58;;
17818;SDS011;9034;50.284;19.310;2022-10-17T06:02:43;29.17;;;20.85;;
17818;SDS011;9034;50.284;19.310;2022-10-17T06:03:49;26.15;;;19.33;;
17818;SDS011;9034;50.284;19.310;2022-10-17T06:04:52;26.67;;;18.80;;
17818;SDS011;9034;50.284;19.310;2022-10-17T06:06:01;28.25;;;18.85;;
17818;SDS011;9034;50.284;19.310;2022-10-17T06:07:06;24.35;;;17.33;;
17818;SDS011;9034;50.284;19.310;2022-10-17T06:08:09;22.08;;;16.58;;
17818;SDS011;9034;50.284;19.310;2022-10-17T06:09:17;22.98;;;15.60;;
17818;SDS011;9034;50.284;19.310;2022-10-17T06:10:23;23.98;;;16.75;;
17818;SDS011;9034;50.284;19.310;2022-10-17T06:11:28;26.65;;;15.52;;
17818;SDS011;9034;50.284;19.310;2022-10-17T06:12:32;22.00;;;15.27;;
17818;SDS011;9034;50.284;19.310;2022-10-17T06:13:36;29.45;;;17.48;;
17818;SDS011;9034;50.284;19.310;2022-10-17T06:14:46;26.10;;;17.10;;
17818;SDS011;9034;50.284;19.310;2022-10-17T06:15:50;27.73;;;16.83;;
17818;SDS011;9034;50.284;19.310;2022-10-17T06:16:53;29.67;;;15.38;;
17818;SDS011;9034;50.284;19.310;2022-10-17T06:17:57;25.45;;;17.23;;
17818;SDS011;9034;50.284;19.310;2022-10-17T06:18:59;27.95;;;16.08;;
17818;SDS011;9034;50.284;19.310;2022-10-17T06:20:04;27.10;;;16.70;;
17818;SDS011;9034;50.284;19.310;2022-10-17T06:21:09;29.65;;;15.25;;
17818;SDS011;9034;50.284;19.310;2022-10-17T06:22:18;32.05;;;15.98;;
17818;SDS011;9034;50.284;19.310;2022-10-17T06:23:21;34.97;;;16.60;;
17818;SDS011;9034;50.284;19.310;2022-10-17T06:24:37;25.13;;;15.75;;
17818;SDS011;9034;50.284;19.310;2022-10-17T06:25:42;27.88;;;15.23;;
17818;SDS011;9034;50.284;19.310;2022-10-17T06:26:45;30.65;;;16.48;;
17818;SDS011;9034;50.284;19.310;2022-10-17T06:27:54;28.10;;;16.13;;
17818;SDS011;9034;50.284;19.310;2022-10-17T06:28:58;37.67;;;17.20;;
17818;SDS011;9034;50.284;19.310;2022-10-17T06:30:06;29.90;;;17.10;;
17818;SDS011;9034;50.284;19.310;2022-10-17T06:31:11;30.73;;;17.00;;
17818;SDS011;9034;50.284;19.310;2022-10-17T06:32:15;33.65;;;16.92;;
17818;SDS011;9034;50.284;19.310;2022-10-17T06:33:21;29.08;;;15.73;;
17818;SDS011;9034;50.284;19.310;2022-10-17T06:34:24;28.27;;;16.27;;
17818;SDS011;9034;50.284;19.310;2022-10-17T06:35:28;24.85;;;15.27;;
17818;SDS011;9034;50.284;19.310;2022-10-17T06:36:32;27.90;;;15.77;;
17818;SDS011;9034;50.284;19.310;2022-10-17T06:37:36;30.23;;;16.25;;
17818;SDS011;9034;50.284;19.310;2022-10-17T06:38:42;39.50;;;16.83;;
17818;SDS011;9034;50.284;19.310;2022-10-17T06:39:54;35.60;;;15.73;;
17818;SDS011;9034;50.284;19.310;2022-10-17T06:41:03;36.20;;;16.88;;
17818;SDS011;9034;50.284;19.310;2022-10-17T06:42:09;44.58;;;16.73;;
17818;SDS011;9034;50.284;19.310;2022-10-17T06:43:32;33.58;;;15.68;;
17818;SDS011;9034;50.284;19.310;2022-10-17T06:44:56;25.85;;;15.60;;
17818;SDS011;9034;50.284;19.310;2022-10-17T06:46:15;23.75;;;14.88;;
17818;SDS011;9034;50.284;19.310;2022-10-17T06:47:49;34.05;;;15.23;;